Time;durP1;ratioP1;P1;durP2;ratioP2;P2;SDS_P1;SDS_P2;PMS_P1;PMS_P2;Temp;Humidity;BMP_temperature;BMP_pressure;BME280_temperature;BME280_humidity;BME280_pressure;Samples;Min_cycle;Max_cycle;Signal;HPM_P1;HPM_P2
2022/07/28 00:01:17;;;;;;;7.43;3.60;;;;;;;;;;5037496;28;94046;-49
2022/07/28 00:03:48;;;;;;;6.43;3.07;;;;;;;;;;5037823;28;93003;-49
2022/07/28 00:06:17;;;;;;;6.07;3.47;;;;;;;;;;5033151;28;92188;-48
2022/07/28 00:08:45;;;;;;;5.70;2.90;;;;;;;;;;5032439;28;94258;-48
2022/07/28 00:11:13;;;;;;;4.53;2.77;;;;;;;;;;5034019;28;93401;-48
2022/07/28 00:13:41;;;;;;;5.77;3.17;;;;;;;;;;5038341;28;91978;-49
2022/07/28 00:16:10;;;;;;;5.63;2.60;;;;;;;;;;5034011;28;92112;-48
2022/07/28 00:18:38;;;;;;;4.30;2.53;;;;;;;;;;5037806;28;93104;-48
2022/07/28 00:21:08;;;;;;;4.90;2.47;;;;;;;;;;5038222;28;93932;-48
2022/07/28 00:23:36;;;;;;;5.03;2.70;;;;;;;;;;5037760;28;91998;-48
2022/07/28 00:26:06;;;;;;;3.60;2.37;;;;;;;;;;5037497;28;92079;-48
2022/07/28 00:28:35;;;;;;;3.47;2.13;;;;;;;;;;5035505;28;94540;-48
2022/07/28 00:31:03;;;;;;;4.57;2.27;;;;;;;;;;5035900;28;93891;-49
2022/07/28 00:33:35;;;;;;;3.83;1.83;;;;;;;;;;5037459;28;92027;-49
2022/07/28 00:36:04;;;;;;;5.10;2.17;;;;;;;;;;5031556;28;91950;-50
2022/07/28 00:38:34;;;;;;;4.43;2.23;;;;;;;;;;5032610;28;93088;-49
2022/07/28 00:41:10;;;;;;;4.50;1.73;;;;;;;;;;5036286;28;92544;-49
2022/07/28 00:43:39;;;;;;;4.57;1.70;;;;;;;;;;5036213;27;92132;-49
2022/07/28 00:46:07;;;;;;;2.13;1.63;;;;;;;;;;5040378;28;91287;-48
2022/07/28 00:48:37;;;;;;;5.13;2.03;;;;;;;;;;5040153;28;94386;-49
2022/07/28 00:51:05;;;;;;;4.03;1.67;;;;;;;;;;5038938;28;92823;-49
2022/07/28 00:53:35;;;;;;;3.37;2.13;;;;;;;;;;5032856;28;93173;-49
2022/07/28 00:56:03;;;;;;;5.00;1.77;;;;;;;;;;5040507;28;92104;-48
2022/07/28 00:58:33;;;;;;;4.03;2.00;;;;;;;;;;5040268;28;94070;-49
2022/07/28 01:01:02;;;;;;;3.37;2.30;;;;;;;;;;5040535;28;92828;-49
2022/07/28 01:03:30;;;;;;;3.17;1.90;;;;;;;;;;5041007;28;92057;-49
2022/07/28 01:06:02;;;;;;;3.30;1.60;;;;;;;;;;5040682;28;92646;-49
2022/07/28 01:08:33;;;;;;;2.50;1.37;;;;;;;;;;5039772;28;94082;-49
2022/07/28 01:11:05;;;;;;;4.50;1.73;;;;;;;;;;5041000;28;92620;-49
2022/07/28 01:13:35;;;;;;;2.87;1.70;;;;;;;;;;5040637;28;92136;-49
2022/07/28 01:16:03;;;;;;;2.27;1.43;;;;;;;;;;5040713;28;92096;-49
2022/07/28 01:18:33;;;;;;;2.17;1.20;;;;;;;;;;5033721;28;93982;-49
2022/07/28 01:21:02;;;;;;;2.67;1.27;;;;;;;;;;5040232;28;92492;-48
2022/07/28 01:23:51;;;;;;;2.80;1.43;;;;;;;;;;5041262;28;91967;-49
2022/07/28 01:26:25;;;;;;;2.50;1.30;;;;;;;;;;5033004;28;92260;-49
2022/07/28 01:28:58;;;;;;;3.37;1.70;;;;;;;;;;5039333;28;93104;-48
2022/07/28 01:31:28;;;;;;;1.50;1.20;;;;;;;;;;5033565;28;92931;-50
2022/07/28 01:33:57;;;;;;;3.30;1.43;;;;;;;;;;5039543;28;92020;-50
2022/07/28 01:36:26;;;;;;;2.83;1.23;;;;;;;;;;5033428;28;91802;-49
2022/07/28 01:38:54;;;;;;;4.37;1.43;;;;;;;;;;5023051;28;95285;-50
2022/07/28 01:41:23;;;;;;;1.70;1.10;;;;;;;;;;5035367;28;94031;-48
2022/07/28 01:43:52;;;;;;;1.50;1.10;;;;;;;;;;5038472;28;93368;-48
2022/07/28 01:46:20;;;;;;;1.77;0.93;;;;;;;;;;5039137;28;92133;-48
2022/07/28 01:48:50;;;;;;;2.40;1.03;;;;;;;;;;5038765;28;92785;-48
2022/07/28 01:51:18;;;;;;;1.47;0.77;;;;;;;;;;5038634;28;92849;-48
2022/07/28 01:53:47;;;;;;;1.10;0.80;;;;;;;;;;5039294;28;91967;-48
2022/07/28 01:56:15;;;;;;;1.10;0.60;;;;;;;;;;5039053;27;92510;-48
2022/07/28 01:58:43;;;;;;;2.57;0.80;;;;;;;;;;5040334;28;93414;-49
2022/07/28 02:01:12;;;;;;;2.17;0.90;;;;;;;;;;5037541;28;92821;-48
2022/07/28 02:03:40;;;;;;;1.23;0.70;;;;;;;;;;5038414;28;92462;-48
2022/07/28 02:06:10;;;;;;;0.67;0.50;;;;;;;;;;5039208;28;92159;-49
2022/07/28 02:08:39;;;;;;;0.47;0.40;;;;;;;;;;5037222;28;94083;-49
2022/07/28 02:13:53;;;;;;;1.00;0.70;;;;;;;;;;5039805;28;92035;-49
2022/07/28 02:16:23;;;;;;;0.90;0.70;;;;;;;;;;5039602;28;92182;-49
2022/07/28 02:18:51;;;;;;;2.00;0.70;;;;;;;;;;5038824;28;94319;-49
2022/07/28 02:21:21;;;;;;;1.40;1.10;;;;;;;;;;5039688;28;92120;-49
2022/07/28 02:23:49;;;;;;;1.20;1.07;;;;;;;;;;5039991;28;92053;-49
2022/07/28 02:26:18;;;;;;;1.90;1.20;;;;;;;;;;5039752;28;91474;-49
2022/07/28 02:28:50;;;;;;;2.93;1.63;;;;;;;;;;5038549;28;94189;-49
2022/07/28 02:31:20;;;;;;;1.67;1.00;;;;;;;;;;5038342;28;93923;-49
2022/07/28 02:33:49;;;;;;;1.80;1.20;;;;;;;;;;5038493;28;92905;-48
2022/07/28 02:36:29;;;;;;;1.47;1.20;;;;;;;;;;5038700;28;92690;-48
2022/07/28 02:39:00;;;;;;;1.60;1.20;;;;;;;;;;5037983;28;93290;-49
2022/07/28 02:41:28;;;;;;;0.83;0.80;;;;;;;;;;5037101;28;92872;-49
2022/07/28 02:43:57;;;;;;;1.70;1.40;;;;;;;;;;5036691;28;92448;-48
2022/07/28 02:46:26;;;;;;;3.50;1.50;;;;;;;;;;5038831;28;92065;-50
2022/07/28 02:48:55;;;;;;;1.27;1.17;;;;;;;;;;5038974;28;94191;-48
2022/07/28 02:51:23;;;;;;;1.60;1.47;;;;;;;;;;5039439;28;93879;-48
2022/07/28 02:53:53;;;;;;;1.30;1.20;;;;;;;;;;5038947;28;92145;-48
2022/07/28 02:56:21;;;;;;;1.30;1.20;;;;;;;;;;5039759;28;91970;-48
2022/07/28 02:58:50;;;;;;;2.17;1.40;;;;;;;;;;5039586;28;95205;-48
2022/07/28 03:01:18;;;;;;;2.40;1.57;;;;;;;;;;5039915;28;94159;-48
2022/07/28 03:03:47;;;;;;;3.50;2.03;;;;;;;;;;5040585;28;92111;-48
2022/07/28 03:06:16;;;;;;;3.07;2.43;;;;;;;;;;5040339;28;92054;-48
2022/07/28 03:08:44;;;;;;;2.93;2.37;;;;;;;;;;5038691;28;94310;-48
2022/07/28 03:11:14;;;;;;;5.83;2.83;;;;;;;;;;5038437;28;93245;-49
2022/07/28 03:13:42;;;;;;;4.93;2.93;;;;;;;;;;5039537;28;92089;-48
2022/07/28 03:16:11;;;;;;;6.63;2.70;;;;;;;;;;5039858;28;91349;-50
2022/07/28 03:18:39;;;;;;;5.57;3.67;;;;;;;;;;5039023;28;94049;-48
2022/07/28 03:21:09;;;;;;;7.93;4.00;;;;;;;;;;5039882;28;92851;-48
2022/07/28 03:23:37;;;;;;;7.17;3.77;;;;;;;;;;5039766;28;93014;-50
2022/07/28 03:26:06;;;;;;;6.33;3.70;;;;;;;;;;5038356;28;92028;-49
2022/07/28 03:28:36;;;;;;;8.43;3.90;;;;;;;;;;5037772;28;94233;-49
2022/07/28 03:31:06;;;;;;;5.97;3.73;;;;;;;;;;5036821;28;93095;-49
2022/07/28 03:33:34;;;;;;;10.50;4.43;;;;;;;;;;5038808;28;92739;-49
2022/07/28 03:36:04;;;;;;;6.47;3.93;;;;;;;;;;5038414;28;92105;-49
2022/07/28 03:38:34;;;;;;;5.90;3.83;;;;;;;;;;5038233;28;93863;-49
2022/07/28 03:41:02;;;;;;;6.00;4.20;;;;;;;;;;5038542;28;92780;-49
2022/07/28 03:43:31;;;;;;;6.43;3.93;;;;;;;;;;5038785;28;92087;-49
2022/07/28 03:46:00;;;;;;;7.90;4.27;;;;;;;;;;5038760;28;92069;-49
2022/07/28 03:48:29;;;;;;;6.23;3.80;;;;;;;;;;5037714;28;93098;-50
2022/07/28 03:50:57;;;;;;;4.13;3.53;;;;;;;;;;5017971;28;94803;-51
2022/07/28 03:53:27;;;;;;;5.57;4.13;;;;;;;;;;5039199;28;92149;-49
2022/07/28 03:55:55;;;;;;;6.30;3.93;;;;;;;;;;5039402;28;92081;-49
2022/07/28 03:58:24;;;;;;;5.70;4.03;;;;;;;;;;5039000;28;93161;-49
2022/07/28 04:00:55;;;;;;;5.23;3.83;;;;;;;;;;5038930;28;92866;-49
2022/07/28 04:03:25;;;;;;;5.93;4.23;;;;;;;;;;5039866;28;91750;-49
2022/07/28 04:06:11;;;;;;;6.00;3.83;;;;;;;;;;5031186;28;92104;-49
2022/07/28 04:08:39;;;;;;;8.87;4.43;;;;;;;;;;5038710;28;93323;-50
2022/07/28 04:11:08;;;;;;;7.43;4.43;;;;;;;;;;5039240;28;93052;-49
2022/07/28 04:13:36;;;;;;;7.10;4.57;;;;;;;;;;5039110;28;92911;-49
2022/07/28 04:16:05;;;;;;;7.87;5.40;;;;;;;;;;5039396;28;92121;-50
2022/07/28 04:18:35;;;;;;;7.17;4.70;;;;;;;;;;5038106;28;93102;-49
2022/07/28 04:21:03;;;;;;;7.87;5.13;;;;;;;;;;5038079;28;92941;-49
2022/07/28 04:23:32;;;;;;;7.10;4.73;;;;;;;;;;5039648;28;91882;-50
2022/07/28 04:26:00;;;;;;;7.17;4.80;;;;;;;;;;5038319;28;92128;-49
2022/07/28 04:28:28;;;;;;;5.47;4.53;;;;;;;;;;5038422;28;96153;-49
2022/07/28 04:30:57;;;;;;;6.13;4.60;;;;;;;;;;5038953;28;93985;-49
2022/07/28 04:33:25;;;;;;;7.90;4.67;;;;;;;;;;5039202;28;92203;-49
2022/07/28 04:35:55;;;;;;;5.00;4.20;;;;;;;;;;5038812;28;92130;-49
2022/07/28 04:38:23;;;;;;;8.17;4.53;;;;;;;;;;5036558;28;93535;-50
2022/07/28 04:40:51;;;;;;;5.53;4.10;;;;;;;;;;5038559;28;93871;-50
2022/07/28 04:43:19;;;;;;;5.50;4.20;;;;;;;;;;5039052;28;91881;-49
2022/07/28 04:45:50;;;;;;;6.53;4.50;;;;;;;;;;5039015;28;92120;-50
2022/07/28 04:48:21;;;;;;;5.20;3.77;;;;;;;;;;5038400;28;93156;-49
2022/07/28 04:50:51;;;;;;;5.33;3.90;;;;;;;;;;5038449;28;94157;-49
2022/07/28 04:53:21;;;;;;;4.50;3.50;;;;;;;;;;5039080;28;91945;-49
2022/07/28 04:55:51;;;;;;;5.90;3.77;;;;;;;;;;5038799;28;91447;-49
2022/07/28 04:58:22;;;;;;;5.47;4.00;;;;;;;;;;5037395;28;93123;-51
2022/07/28 05:00:51;;;;;;;4.13;3.40;;;;;;;;;;5037490;28;92703;-49
2022/07/28 05:03:20;;;;;;;5.57;3.70;;;;;;;;;;5037907;28;93009;-49
2022/07/28 05:05:48;;;;;;;4.60;3.47;;;;;;;;;;5038468;28;91973;-49
2022/07/28 05:08:23;;;;;;;4.83;3.50;;;;;;;;;;5037880;28;93299;-50
2022/07/28 05:10:53;;;;;;;5.43;3.50;;;;;;;;;;5038100;28;92925;-49
2022/07/28 05:13:21;;;;;;;6.20;2.90;;;;;;;;;;5038327;28;91949;-49
2022/07/28 05:15:50;;;;;;;4.33;2.67;;;;;;;;;;5039206;28;91907;-49
2022/07/28 05:18:18;;;;;;;3.10;2.40;;;;;;;;;;5038154;28;94177;-48
2022/07/28 05:20:46;;;;;;;2.67;2.30;;;;;;;;;;5038684;28;93969;-49
2022/07/28 05:23:16;;;;;;;4.60;2.97;;;;;;;;;;5038370;28;92053;-49
2022/07/28 05:25:46;;;;;;;3.63;2.00;;;;;;;;;;5037959;28;91965;-49
2022/07/28 05:28:14;;;;;;;3.83;2.00;;;;;;;;;;5037429;28;94244;-49
2022/07/28 05:30:44;;;;;;;4.00;2.20;;;;;;;;;;5039058;28;93762;-49
2022/07/28 05:33:12;;;;;;;2.20;2.00;;;;;;;;;;5041790;28;91856;-49
2022/07/28 05:35:40;;;;;;;2.33;1.83;;;;;;;;;;5041694;28;92111;-49
2022/07/28 05:38:09;;;;;;;3.70;1.70;;;;;;;;;;5040990;28;93144;-47
2022/07/28 05:40:38;;;;;;;2.57;1.60;;;;;;;;;;5041215;28;93350;-49
2022/07/28 05:43:08;;;;;;;2.77;1.70;;;;;;;;;;5041525;28;91998;-48
2022/07/28 05:45:36;;;;;;;2.43;1.23;;;;;;;;;;5041730;28;91159;-48
2022/07/28 05:48:04;;;;;;;2.17;1.27;;;;;;;;;;5041228;28;94239;-48
2022/07/28 05:50:33;;;;;;;2.77;1.37;;;;;;;;;;5040421;28;93915;-50
2022/07/28 05:53:01;;;;;;;1.80;1.30;;;;;;;;;;5040881;28;93032;-48
2022/07/28 05:55:29;;;;;;;1.03;1.00;;;;;;;;;;5041372;28;92075;-48
2022/07/28 05:57:59;;;;;;;1.30;1.07;;;;;;;;;;5041158;28;93270;-48
2022/07/28 06:00:28;;;;;;;1.57;1.27;;;;;;;;;;5040627;28;93864;-48
2022/07/28 06:03:00;;;;;;;1.47;0.97;;;;;;;;;;5041517;28;92191;-48
2022/07/28 06:05:29;;;;;;;1.37;0.90;;;;;;;;;;5041371;28;92027;-48
2022/07/28 06:07:57;;;;;;;1.37;1.13;;;;;;;;;;5040533;28;93134;-47
2022/07/28 06:10:26;;;;;;;0.83;0.73;;;;;;;;;;5041004;28;92106;-48
2022/07/28 06:12:56;;;;;;;1.27;0.90;;;;;;;;;;5040975;28;92994;-48
2022/07/28 06:15:25;;;;;;;1.90;1.13;;;;;;;;;;5033101;28;92007;-48
2022/07/28 06:17:55;;;;;;;1.70;1.30;;;;;;;;;;5040295;28;95196;-48
2022/07/28 06:20:23;;;;;;;2.23;1.20;;;;;;;;;;5040192;28;93768;-48
2022/07/28 06:22:52;;;;;;;1.27;1.17;;;;;;;;;;5040838;28;92052;-48
2022/07/28 06:25:21;;;;;;;1.00;0.80;;;;;;;;;;5031997;28;92111;-48
2022/07/28 06:27:50;;;;;;;0.70;0.70;;;;;;;;;;5039778;28;93286;-48
2022/07/28 06:30:18;;;;;;;1.40;1.20;;;;;;;;;;5039973;28;94057;-48
2022/07/28 06:32:47;;;;;;;1.13;0.83;;;;;;;;;;5040864;28;91989;-50
2022/07/28 06:35:17;;;;;;;2.10;1.00;;;;;;;;;;5040759;28;91143;-48
2022/07/28 06:37:45;;;;;;;1.23;0.97;;;;;;;;;;5040108;28;93080;-48
2022/07/28 06:40:14;;;;;;;0.70;0.70;;;;;;;;;;5040353;28;93973;-49
2022/07/28 06:42:42;;;;;;;2.20;0.83;;;;;;;;;;5039143;28;92992;-48
2022/07/28 06:45:11;;;;;;;1.33;0.90;;;;;;;;;;5040768;28;92085;-48
2022/07/28 06:47:48;;;;;;;0.97;0.73;;;;;;;;;;5040082;28;93305;-48
2022/07/28 06:50:17;;;;;;;1.10;1.00;;;;;;;;;;5040226;28;92911;-48
2022/07/28 06:52:53;;;;;;;0.70;0.70;;;;;;;;;;5040165;28;91933;-49
2022/07/28 06:55:22;;;;;;;4.07;0.80;;;;;;;;;;5040025;28;91929;-49
2022/07/28 06:57:50;;;;;;;3.00;0.83;;;;;;;;;;5038848;28;93176;-48
2022/07/28 07:00:18;;;;;;;0.67;0.67;;;;;;;;;;5040047;28;91612;-48
2022/07/28 07:02:47;;;;;;;1.50;0.90;;;;;;;;;;5039658;28;92090;-48
2022/07/28 07:05:15;;;;;;;0.70;0.70;;;;;;;;;;5039886;28;92057;-48
2022/07/28 07:07:45;;;;;;;1.77;1.00;;;;;;;;;;5039250;28;94296;-48
2022/07/28 07:10:13;;;;;;;1.03;0.80;;;;;;;;;;5039955;28;93899;-49
2022/07/28 07:12:42;;;;;;;1.57;0.97;;;;;;;;;;5039851;28;92113;-48
2022/07/28 07:15:11;;;;;;;0.70;0.70;;;;;;;;;;5039480;28;92044;-49
2022/07/28 07:17:40;;;;;;;1.63;0.93;;;;;;;;;;5039739;28;93344;-50
2022/07/28 07:20:09;;;;;;;1.63;1.10;;;;;;;;;;5039653;28;92915;-49
2022/07/28 07:22:42;;;;;;;1.07;0.67;;;;;;;;;;5039945;28;92426;-49
2022/07/28 07:25:11;;;;;;;1.97;0.83;;;;;;;;;;5039816;28;91224;-48
2022/07/28 07:27:40;;;;;;;0.67;0.67;;;;;;;;;;5038947;28;93325;-48
2022/07/28 07:30:08;;;;;;;0.90;0.60;;;;;;;;;;5039293;28;92920;-49
2022/07/28 07:32:37;;;;;;;1.00;0.77;;;;;;;;;;5038674;28;93008;-48
2022/07/28 07:35:06;;;;;;;1.20;1.10;;;;;;;;;;5039581;28;92215;-48
2022/07/28 07:37:34;;;;;;;0.90;0.73;;;;;;;;;;5039470;28;93155;-48
2022/07/28 07:40:02;;;;;;;2.33;0.90;;;;;;;;;;5039094;28;92850;-50
2022/07/28 07:42:32;;;;;;;1.07;1.00;;;;;;;;;;5039942;28;92173;-49
2022/07/28 07:45:00;;;;;;;1.17;1.07;;;;;;;;;;5039684;28;91935;-48
2022/07/28 07:47:29;;;;;;;1.13;1.03;;;;;;;;;;5039455;28;93274;-50
2022/07/28 07:49:57;;;;;;;1.90;1.33;;;;;;;;;;5039483;28;93997;-49
2022/07/28 07:52:25;;;;;;;3.50;1.47;;;;;;;;;;5039721;28;92060;-49
2022/07/28 07:54:53;;;;;;;1.77;0.90;;;;;;;;;;5039265;28;91948;-48
2022/07/28 07:57:22;;;;;;;1.40;1.30;;;;;;;;;;5038397;28;93112;-49
2022/07/28 07:59:51;;;;;;;1.30;1.20;;;;;;;;;;5038629;28;94861;-49
2022/07/28 08:02:20;;;;;;;1.60;1.20;;;;;;;;;;5038746;28;92205;-48
2022/07/28 08:04:48;;;;;;;1.73;1.33;;;;;;;;;;5038962;28;92117;-49
2022/07/28 08:07:16;;;;;;;1.40;1.03;;;;;;;;;;5038931;28;94112;-50
2022/07/28 08:09:49;;;;;;;2.87;1.40;;;;;;;;;;5039052;28;93965;-49
2022/07/28 08:12:18;;;;;;;1.70;1.37;;;;;;;;;;5039682;28;92073;-48
2022/07/28 08:14:53;;;;;;;2.00;1.30;;;;;;;;;;5039137;28;91281;-50
2022/07/28 08:17:22;;;;;;;1.47;0.90;;;;;;;;;;5038725;28;94310;-48
2022/07/28 08:19:53;;;;;;;1.20;1.07;;;;;;;;;;5038662;28;92075;-49
2022/07/28 08:22:21;;;;;;;2.10;1.20;;;;;;;;;;5036423;28;92912;-50
2022/07/28 08:24:50;;;;;;;1.60;1.13;;;;;;;;;;5037368;28;92157;-49
2022/07/28 08:27:18;;;;;;;1.20;1.10;;;;;;;;;;5037721;28;94207;-49
2022/07/28 08:29:46;;;;;;;1.30;1.20;;;;;;;;;;5038173;28;92839;-49
2022/07/28 08:32:16;;;;;;;1.70;1.37;;;;;;;;;;5038885;28;92296;-50
2022/07/28 08:34:44;;;;;;;2.30;1.20;;;;;;;;;;5038428;28;92125;-49
2022/07/28 08:37:13;;;;;;;2.37;1.70;;;;;;;;;;5038503;28;94162;-49
2022/07/28 08:39:41;;;;;;;1.43;1.03;;;;;;;;;;5039003;28;92827;-49
2022/07/28 08:42:10;;;;;;;1.53;1.43;;;;;;;;;;5038401;28;92049;-48
2022/07/28 08:44:39;;;;;;;1.87;1.40;;;;;;;;;;5038669;28;92082;-48
2022/07/28 08:47:09;;;;;;;1.70;1.10;;;;;;;;;;5037967;28;94079;-49
2022/07/28 08:49:39;;;;;;;2.20;1.20;;;;;;;;;;5038659;28;93539;-49
2022/07/28 08:52:08;;;;;;;1.77;1.20;;;;;;;;;;5038883;28;92054;-49
2022/07/28 08:54:37;;;;;;;4.83;1.33;;;;;;;;;;5038933;28;92078;-50
2022/07/28 08:57:05;;;;;;;1.90;1.10;;;;;;;;;;5037283;28;93194;-49
2022/07/28 08:59:33;;;;;;;3.47;1.30;;;;;;;;;;5038147;28;92816;-50
2022/07/28 09:02:02;;;;;;;1.93;1.27;;;;;;;;;;5038203;28;92087;-48
2022/07/28 09:04:32;;;;;;;1.33;1.23;;;;;;;;;;5039101;27;91236;-50
2022/07/28 09:07:02;;;;;;;2.27;1.20;;;;;;;;;;5041397;28;94222;-49
2022/07/28 09:09:31;;;;;;;1.10;1.00;;;;;;;;;;5041576;28;93023;-49
2022/07/28 09:11:59;;;;;;;1.20;1.10;;;;;;;;;;5041521;28;94131;-49
2022/07/28 09:14:27;;;;;;;1.63;1.10;;;;;;;;;;5041281;28;92039;-49
2022/07/28 09:16:56;;;;;;;2.73;0.90;;;;;;;;;;5041469;28;93322;-49
2022/07/28 09:19:24;;;;;;;1.13;0.67;;;;;;;;;;5041817;28;93819;-50
2022/07/28 09:22:02;;;;;;;3.17;1.07;;;;;;;;;;5041788;28;91930;-50
2022/07/28 09:24:34;;;;;;;1.07;1.00;;;;;;;;;;5042136;28;92011;-49
2022/07/28 09:27:02;;;;;;;2.50;1.40;;;;;;;;;;5041401;28;93173;-49
2022/07/28 09:29:31;;;;;;;3.17;1.50;;;;;;;;;;5041792;28;93038;-49
2022/07/28 09:31:59;;;;;;;4.77;2.17;;;;;;;;;;5041244;28;92101;-49
2022/07/28 09:34:28;;;;;;;4.10;2.73;;;;;;;;;;5041306;28;92096;-49
2022/07/28 09:36:56;;;;;;;8.23;3.67;;;;;;;;;;5040769;28;95159;-49
2022/07/28 09:39:32;;;;;;;9.93;4.40;;;;;;;;;;5041320;28;94990;-50
2022/07/28 09:42:01;;;;;;;13.60;5.57;;;;;;;;;;5041285;28;92029;-49
2022/07/28 09:44:29;;;;;;;9.33;5.07;;;;;;;;;;5041283;28;91962;-48
2022/07/28 09:46:57;;;;;;;12.17;5.17;;;;;;;;;;5040939;28;94245;-49
2022/07/28 09:49:41;;;;;;;9.50;5.10;;;;;;;;;;5041191;28;92832;-49
2022/07/28 09:52:10;;;;;;;9.80;5.03;;;;;;;;;;5041740;28;91811;-50
2022/07/28 09:54:40;;;;;;;11.40;5.23;;;;;;;;;;5041971;28;91292;-49
2022/07/28 09:57:11;;;;;;;14.93;5.67;;;;;;;;;;5040481;28;94148;-49
2022/07/28 09:59:42;;;;;;;14.03;5.97;;;;;;;;;;5040573;28;92862;-49
2022/07/28 10:02:23;;;;;;;11.47;4.97;;;;;;;;;;5040532;28;93017;-49
2022/07/28 10:04:53;;;;;;;8.83;4.60;;;;;;;;;;5041156;28;92016;-49
2022/07/28 10:07:21;;;;;;;10.23;3.90;;;;;;;;;;5040421;28;93301;-49
2022/07/28 10:09:58;;;;;;;11.67;4.87;;;;;;;;;;5040275;28;92836;-49
2022/07/28 10:12:26;;;;;;;5.67;3.07;;;;;;;;;;5040942;28;91947;-49
2022/07/28 10:14:55;;;;;;;10.03;4.57;;;;;;;;;;5040328;28;92143;-49
2022/07/28 10:17:24;;;;;;;10.03;3.57;;;;;;;;;;5031910;28;93168;-49
2022/07/28 10:19:53;;;;;;;6.73;3.63;;;;;;;;;;5040727;28;91867;-49
2022/07/28 10:22:23;;;;;;;7.37;3.37;;;;;;;;;;5040551;28;92056;-49
2022/07/28 10:24:51;;;;;;;5.27;2.63;;;;;;;;;;5040729;28;92004;-49
2022/07/28 10:27:23;;;;;;;8.20;3.40;;;;;;;;;;5039588;28;94304;-49
2022/07/28 10:29:54;;;;;;;8.10;3.50;;;;;;;;;;5040094;28;93871;-49
2022/07/28 10:32:22;;;;;;;5.80;2.80;;;;;;;;;;5040524;28;92053;-51
2022/07/28 10:34:51;;;;;;;8.47;2.90;;;;;;;;;;5040724;28;91954;-49
2022/07/28 10:37:20;;;;;;;4.80;2.53;;;;;;;;;;5040240;28;94153;-49
2022/07/28 10:39:50;;;;;;;6.10;2.90;;;;;;;;;;5040354;28;92955;-49
2022/07/28 10:42:18;;;;;;;5.43;2.90;;;;;;;;;;5040862;28;92096;-50
2022/07/28 10:44:48;;;;;;;4.33;2.00;;;;;;;;;;5041205;28;91303;-49
2022/07/28 10:47:16;;;;;;;5.27;2.43;;;;;;;;;;5039580;28;93156;-49
2022/07/28 10:49:47;;;;;;;4.13;2.53;;;;;;;;;;5039769;28;92717;-49
2022/07/28 10:52:17;;;;;;;3.47;2.00;;;;;;;;;;5039645;28;93024;-49
2022/07/28 10:55:08;;;;;;;3.03;1.70;;;;;;;;;;5039711;28;92088;-49
2022/07/28 10:57:37;;;;;;;1.83;1.33;;;;;;;;;;5039692;28;93363;-49
2022/07/28 11:00:10;;;;;;;2.90;1.43;;;;;;;;;;5040189;28;92760;-49
2022/07/28 11:02:50;;;;;;;4.20;1.70;;;;;;;;;;5039728;28;92092;-49
2022/07/28 11:05:31;;;;;;;3.90;1.83;;;;;;;;;;5039710;28;91981;-49
2022/07/28 11:08:01;;;;;;;3.97;1.80;;;;;;;;;;5039176;28;95932;-49
2022/07/28 11:10:29;;;;;;;3.13;1.60;;;;;;;;;;5040304;28;93516;-49
2022/07/28 11:12:59;;;;;;;4.67;2.03;;;;;;;;;;5040491;28;92131;-49
2022/07/28 11:15:34;;;;;;;1.70;0.93;;;;;;;;;;5040444;28;91982;-49
2022/07/28 11:18:07;;;;;;;2.83;1.13;;;;;;;;;;5038842;28;94385;-51
2022/07/28 11:20:55;;;;;;;2.83;1.33;;;;;;;;;;5039086;28;94849;-49
2022/07/28 11:23:47;;;;;;;1.83;1.00;;;;;;;;;;5039856;28;92007;-49
2022/07/28 11:26:37;;;;;;;3.57;1.57;;;;;;;;;;5039754;28;91989;-50
2022/07/28 11:29:18;;;;;;;2.43;1.03;;;;;;;;;;5038933;28;94427;-49
2022/07/28 11:32:00;;;;;;;1.23;1.00;;;;;;;;;;5039199;28;92805;-49
2022/07/28 11:34:28;;;;;;;1.17;0.87;;;;;;;;;;5039636;28;92039;-50
2022/07/28 11:37:03;;;;;;;2.33;1.00;;;;;;;;;;5039455;28;91436;-49
2022/07/28 11:39:32;;;;;;;3.20;1.10;;;;;;;;;;5038659;28;93143;-49
2022/07/28 11:42:26;;;;;;;1.40;1.00;;;;;;;;;;5039606;28;94008;-49
2022/07/28 11:44:55;;;;;;;2.10;1.10;;;;;;;;;;5039459;28;92899;-49
2022/07/28 11:47:25;;;;;;;0.80;0.63;;;;;;;;;;5039043;28;92087;-49
2022/07/28 11:50:10;;;;;;;1.73;1.00;;;;;;;;;;5038869;28;93330;-49
2022/07/28 11:52:39;;;;;;;2.83;0.87;;;;;;;;;;5039185;28;92723;-49
2022/07/28 11:55:07;;;;;;;1.23;0.80;;;;;;;;;;5038960;28;92065;-49
2022/07/28 11:57:39;;;;;;;0.80;0.40;;;;;;;;;;5039577;28;92004;-49
2022/07/28 12:00:08;;;;;;;1.10;0.60;;;;;;;;;;5038933;28;91977;-49
2022/07/28 12:02:38;;;;;;;0.90;0.70;;;;;;;;;;5038901;28;94087;-49
2022/07/28 12:05:13;;;;;;;0.90;0.60;;;;;;;;;;5039145;28;92082;-49
2022/07/28 12:07:43;;;;;;;1.00;0.70;;;;;;;;;;5039682;28;92107;-49
2022/07/28 12:10:24;;;;;;;1.00;0.70;;;;;;;;;;5038393;28;93914;-49
2022/07/28 12:13:12;;;;;;;0.60;0.57;;;;;;;;;;5038296;28;93318;-49
2022/07/28 12:15:41;;;;;;;0.50;0.50;;;;;;;;;;5039169;28;91809;-49
2022/07/28 12:18:13;;;;;;;0.73;0.40;;;;;;;;;;5038992;28;91938;-49
2022/07/28 12:20:45;;;;;;;0.53;0.53;;;;;;;;;;5038702;28;93111;-50
2022/07/28 12:23:16;;;;;;;0.50;0.50;;;;;;;;;;5038857;28;92879;-50
2022/07/28 12:25:45;;;;;;;0.60;0.60;;;;;;;;;;5039007;28;92120;-49
2022/07/28 12:28:17;;;;;;;2.03;0.57;;;;;;;;;;5039034;28;91314;-49
2022/07/28 12:30:47;;;;;;;0.90;0.40;;;;;;;;;;5038205;28;94282;-50
2022/07/28 12:33:20;;;;;;;0.67;0.50;;;;;;;;;;5038811;28;93907;-49
2022/07/28 12:35:56;;;;;;;2.83;0.23;;;;;;;;;;5038359;28;92850;-49
2022/07/28 12:38:25;;;;;;;0.93;0.57;;;;;;;;;;5039028;28;92051;-50
2022/07/28 12:40:54;;;;;;;0.63;0.47;;;;;;;;;;5039999;27;94207;-49
2022/07/28 12:43:22;;;;;;;0.40;0.30;;;;;;;;;;5042149;28;92936;-49
2022/07/28 12:45:50;;;;;;;0.87;0.40;;;;;;;;;;5042655;28;92041;-49
2022/07/28 12:48:20;;;;;;;0.50;0.40;;;;;;;;;;5042577;28;91953;-50
2022/07/28 12:50:48;;;;;;;0.30;0.30;;;;;;;;;;5042353;28;94320;-49
2022/07/28 12:53:20;;;;;;;0.30;0.30;;;;;;;;;;5042123;28;92835;-50
2022/07/28 12:55:48;;;;;;;0.40;0.30;;;;;;;;;;5042455;28;92081;-49
2022/07/28 12:58:23;;;;;;;0.50;0.30;;;;;;;;;;5042432;28;91968;-50
2022/07/28 13:00:52;;;;;;;0.40;0.30;;;;;;;;;;5040607;28;94101;-49
2022/07/28 13:03:23;;;;;;;0.50;0.50;;;;;;;;;;5041043;28;94773;-49
2022/07/28 13:06:03;;;;;;;0.30;0.30;;;;;;;;;;5041611;28;92175;-50
2022/07/28 13:08:38;;;;;;;0.50;0.30;;;;;;;;;;5042032;28;92058;-50
2022/07/28 13:11:12;;;;;;;0.30;0.30;;;;;;;;;;5041640;28;94091;-49
2022/07/28 13:14:01;;;;;;;1.13;0.40;;;;;;;;;;5041549;28;92383;-49
2022/07/28 13:16:29;;;;;;;0.43;0.30;;;;;;;;;;5041825;28;91896;-49
2022/07/28 13:19:01;;;;;;;0.20;0.20;;;;;;;;;;5042051;28;91388;-49
2022/07/28 13:21:42;;;;;;;0.40;0.33;;;;;;;;;;5040924;28;94200;-50
2022/07/28 13:24:27;;;;;;;0.40;0.40;;;;;;;;;;5040921;28;93009;-49
2022/07/28 13:26:56;;;;;;;0.30;0.30;;;;;;;;;;5041096;28;93085;-49
2022/07/28 13:29:24;;;;;;;0.30;0.30;;;;;;;;;;5041623;28;92024;-49
2022/07/28 13:31:53;;;;;;;0.57;0.50;;;;;;;;;;5040799;28;93438;-49
2022/07/28 13:34:23;;;;;;;2.60;0.97;;;;;;;;;;5041359;28;93852;-48
2022/07/28 13:36:52;;;;;;;5.17;1.53;;;;;;;;;;5041699;28;91961;-48
2022/07/28 13:39:21;;;;;;;3.90;1.70;;;;;;;;;;5041933;28;92048;-48
2022/07/28 13:41:49;;;;;;;3.70;1.73;;;;;;;;;;5041259;28;94198;-49
2022/07/28 13:44:25;;;;;;;3.00;2.10;;;;;;;;;;5041198;28;92743;-48
2022/07/28 13:46:54;;;;;;;2.30;1.67;;;;;;;;;;5041842;28;92059;-48
2022/07/28 13:49:26;;;;;;;4.20;2.30;;;;;;;;;;5041344;28;91962;-49
2022/07/28 13:51:54;;;;;;;5.87;2.10;;;;;;;;;;5040242;28;95145;-49
2022/07/28 13:54:22;;;;;;;5.07;2.47;;;;;;;;;;5040265;28;94037;-50
2022/07/28 13:56:51;;;;;;;3.80;2.30;;;;;;;;;;5040700;28;91908;-48
2022/07/28 13:59:19;;;;;;;3.67;1.87;;;;;;;;;;5040920;28;92410;-49
2022/07/28 14:01:48;;;;;;;3.50;2.20;;;;;;;;;;5040590;28;94138;-48
2022/07/28 14:04:17;;;;;;;3.93;2.33;;;;;;;;;;5040284;28;92735;-49
2022/07/28 14:06:50;;;;;;;4.60;1.93;;;;;;;;;;5041031;28;91995;-49
2022/07/28 14:09:18;;;;;;;4.20;2.53;;;;;;;;;;5041401;28;91310;-49
2022/07/28 14:11:48;;;;;;;4.70;2.03;;;;;;;;;;5040733;28;94147;-49
2022/07/28 14:14:21;;;;;;;2.90;1.93;;;;;;;;;;5039718;28;93800;-49
2022/07/28 14:16:51;;;;;;;3.43;2.03;;;;;;;;;;5040260;28;93064;-49
2022/07/28 14:19:21;;;;;;;4.20;2.10;;;;;;;;;;5041262;28;92092;-49
2022/07/28 14:22:08;;;;;;;4.73;2.27;;;;;;;;;;5040716;28;94167;-49
2022/07/28 14:24:41;;;;;;;2.67;1.70;;;;;;;;;;5039854;28;93890;-48
2022/07/28 14:27:09;;;;;;;5.00;2.40;;;;;;;;;;5040665;28;92061;-48
2022/07/28 14:29:38;;;;;;;5.17;2.07;;;;;;;;;;5040386;28;92040;-49
2022/07/28 14:32:06;;;;;;;4.67;2.73;;;;;;;;;;5039541;28;93295;-50
2022/07/28 14:34:34;;;;;;;4.67;2.47;;;;;;;;;;5039963;28;92887;-49
2022/07/28 14:37:03;;;;;;;3.00;2.20;;;;;;;;;;5039674;28;92085;-49
2022/07/28 14:39:37;;;;;;;7.37;3.43;;;;;;;;;;5040092;28;92111;-49
2022/07/28 14:42:06;;;;;;;5.87;2.97;;;;;;;;;;5039500;28;95437;-49
2022/07/28 14:44:34;;;;;;;7.83;3.60;;;;;;;;;;5039916;28;93866;-48
2022/07/28 14:47:02;;;;;;;5.77;3.20;;;;;;;;;;5040549;28;91905;-49
2022/07/28 14:49:31;;;;;;;6.47;3.27;;;;;;;;;;5040518;28;92062;-48
2022/07/28 14:51:59;;;;;;;5.90;3.40;;;;;;;;;;5040143;28;94238;-48
2022/07/28 14:54:27;;;;;;;8.10;3.57;;;;;;;;;;5037435;28;94242;-48
2022/07/28 14:56:57;;;;;;;6.00;3.23;;;;;;;;;;5037232;28;92162;-48
2022/07/28 14:59:25;;;;;;;8.30;3.77;;;;;;;;;;5039024;28;91527;-49
2022/07/28 15:01:53;;;;;;;5.00;3.27;;;;;;;;;;5036960;28;94418;-49
2022/07/28 15:04:22;;;;;;;7.00;3.57;;;;;;;;;;5036222;27;93882;-48